createdAt,value
2018-04-25T00:02:08.212Z,99774.78
2018-04-25T00:04:35.825Z,99772.37
2018-04-25T00:07:03.409Z,99761.70
2018-04-25T00:09:31.016Z,99763.55
2018-04-25T00:11:58.630Z,99759.09
2018-04-25T00:14:26.215Z,99763.66
2018-04-25T00:16:53.807Z,99757.11
2018-04-25T00:19:21.471Z,99752.63
2018-04-25T00:21:49.177Z,99749.25
2018-04-25T00:24:16.793Z,99754.95
2018-04-25T00:26:44.445Z,99741.41
2018-04-25T00:29:12.035Z,99747.50
2018-04-25T00:31:39.625Z,99756.09
2018-04-25T00:34:07.233Z,99747.84
2018-04-25T00:36:34.818Z,99750.48
2018-04-25T00:39:02.443Z,99745.66
2018-04-25T00:41:30.072Z,99745.14
2018-04-25T00:43:57.665Z,99744.20
2018-04-25T00:46:25.333Z,99732.83
2018-04-25T00:48:53.007Z,99741.14
2018-04-25T00:51:20.590Z,99746.08
2018-04-25T00:53:48.180Z,99740.45
2018-04-25T00:56:15.842Z,99744.00
2018-04-25T00:58:43.650Z,99749.67
2018-04-25T01:01:11.322Z,99754.02
2018-04-25T01:03:38.908Z,99755.44
2018-04-25T01:06:06.622Z,99753.93
2018-04-25T01:08:34.290Z,99750.84
2018-04-25T01:11:01.868Z,99751.38
2018-04-25T01:13:29.651Z,99756.34
2018-04-25T01:15:57.292Z,99756.38
2018-04-25T01:18:24.894Z,99754.69
2018-04-25T01:20:52.604Z,99762.34
2018-04-25T01:23:24.969Z,99763.33
2018-04-25T01:26:01.638Z,99765.91
2018-04-25T01:31:41.012Z,99769.55
2018-04-25T01:34:14.621Z,99773.95
2018-04-25T01:36:43.286Z,99777.72
2018-04-25T01:39:17.520Z,99783.45
2018-04-25T01:41:47.217Z,99783.14
2018-04-25T01:44:22.835Z,99791.30
2018-04-25T01:50:11.172Z,99801.30
2018-04-25T01:52:50.481Z,99802.78
2018-04-25T01:55:29.819Z,99802.50
2018-04-25T01:58:09.543Z,99803.19
2018-04-25T02:00:48.992Z,99801.47
2018-04-25T02:03:17.462Z,99795.14
2018-04-25T02:05:45.130Z,99788.88
2018-04-25T02:08:12.713Z,99794.98
2018-04-25T02:10:40.473Z,99788.19
2018-04-25T02:13:08.326Z,99789.84
2018-04-25T02:15:35.912Z,99786.91
2018-04-25T02:18:03.589Z,99791.10
2018-04-25T02:20:31.179Z,99791.30
2018-04-25T02:22:58.781Z,99796.52
2018-04-25T02:25:26.395Z,99793.56
2018-04-25T02:27:54.106Z,99788.83
2018-04-25T02:30:21.698Z,99795.57
2018-04-25T02:32:49.332Z,99803.13
2018-04-25T02:35:16.917Z,99804.08
2018-04-25T02:37:44.538Z,99803.98
2018-04-25T02:40:12.151Z,99801.79
2018-04-25T02:42:39.742Z,99807.34
2018-04-25T02:45:07.329Z,99809.68
2018-04-25T02:47:34.966Z,99810.02
2018-04-25T02:50:02.546Z,99807.91
2018-04-25T02:52:30.136Z,99815.41
2018-04-25T02:54:57.759Z,99825.06
2018-04-25T02:57:25.385Z,99818.44
2018-04-25T02:59:53.309Z,99818.28
2018-04-25T03:02:20.949Z,99822.85
2018-04-25T03:04:48.589Z,99820.71
2018-04-25T03:07:16.195Z,99818.18
2018-04-25T03:09:43.790Z,99817.48
2018-04-25T03:12:11.489Z,99814.36
2018-04-25T03:14:39.149Z,99824.21
2018-04-25T03:17:06.757Z,99830.92
2018-04-25T03:19:34.376Z,99836.77
2018-04-25T03:22:01.971Z,99837.66
2018-04-25T03:24:29.564Z,99835.98
2018-04-25T03:26:57.192Z,99842.78
2018-04-25T03:29:24.771Z,99839.64
2018-04-25T03:31:52.513Z,99849.03
2018-04-25T03:34:20.340Z,99857.69
2018-04-25T03:36:48.239Z,99858.05
2018-04-25T03:39:15.816Z,99860.48
2018-04-25T03:41:43.565Z,99859.38
2018-04-25T03:44:11.216Z,99855.25
2018-04-25T03:46:38.890Z,99862.53
2018-04-25T03:49:06.524Z,99861.70
2018-04-25T03:51:34.116Z,99864.42
2018-04-25T03:54:01.690Z,99866.04
2018-04-25T03:56:29.299Z,99866.55
2018-04-25T03:58:56.855Z,99867.58
2018-04-25T04:01:24.412Z,99866.28
2018-04-25T04:03:52.009Z,99867.03
2018-04-25T04:06:19.764Z,99868.17
2018-04-25T04:08:47.416Z,99866.51
2018-04-25T04:11:15.084Z,99870.03
2018-04-25T04:13:42.759Z,99871.04
2018-04-25T04:16:10.413Z,99874.33
2018-04-25T04:18:38.032Z,99882.13
2018-04-25T04:21:05.627Z,99881.20
2018-04-25T04:23:33.199Z,99878.22
2018-04-25T04:26:00.827Z,99878.63
2018-04-25T04:28:28.408Z,99882.87
2018-04-25T04:30:55.986Z,99883.67
2018-04-25T04:33:23.600Z,99887.36
2018-04-25T04:35:51.184Z,99889.91
2018-04-25T04:38:18.756Z,99896.45
2018-04-25T04:40:46.358Z,99899.41
2018-04-25T04:43:13.942Z,99899.27
2018-04-25T04:45:41.553Z,99899.58
2018-04-25T04:48:09.150Z,99904.73
2018-04-25T04:50:36.727Z,99906.09
2018-04-25T04:53:04.313Z,99902.75
2018-04-25T04:55:31.936Z,99909.63
2018-04-25T04:57:59.520Z,99909.73
2018-04-25T05:00:27.113Z,99915.74
2018-04-25T05:02:54.764Z,99911.31
2018-04-25T05:05:22.339Z,99910.42
2018-04-25T05:07:49.928Z,99915.59
2018-04-25T05:10:17.543Z,99909.05
2018-04-25T05:12:45.170Z,99911.66
2018-04-25T05:15:12.789Z,99914.00
2018-04-25T05:17:40.433Z,99918.16
2018-04-25T05:20:08.015Z,99917.50
2018-04-25T05:22:35.592Z,99909.32
2018-04-25T05:25:03.180Z,99914.80
2018-04-25T05:27:30.747Z,99910.83
2018-04-25T05:29:58.342Z,99911.33
2018-04-25T05:32:25.951Z,99923.58
2018-04-25T05:34:53.546Z,99922.97
2018-04-25T05:37:21.131Z,99915.84
2018-04-25T05:39:48.736Z,99917.08
2018-04-25T05:42:16.308Z,99913.45
2018-04-25T05:44:43.885Z,99913.41
2018-04-25T05:47:11.505Z,99912.72
2018-04-25T05:49:39.087Z,99910.34
2018-04-25T05:52:06.667Z,99909.22
2018-04-25T05:54:34.288Z,99910.30
2018-04-25T05:57:01.858Z,99904.38
2018-04-25T05:59:29.425Z,99919.50
2018-04-25T06:01:57.037Z,99919.80
2018-04-25T06:04:24.626Z,99923.05
2018-04-25T06:06:52.190Z,99921.48
2018-04-25T06:09:19.805Z,99923.02
2018-04-25T06:11:47.408Z,99935.03
2018-04-25T06:14:14.980Z,99930.66
2018-04-25T06:16:42.592Z,99926.74
2018-04-25T06:19:10.164Z,99930.44
2018-04-25T06:21:37.751Z,99928.75
2018-04-25T06:24:05.368Z,99926.05
2018-04-25T06:26:33.026Z,99922.59
2018-04-25T06:29:00.555Z,99930.01
2018-04-25T06:31:28.179Z,99922.64
2018-04-25T06:33:55.764Z,99925.16
2018-04-25T06:36:23.386Z,99930.55
2018-04-25T06:38:51.003Z,99929.08
2018-04-25T06:41:18.591Z,99932.58
2018-04-25T06:43:46.167Z,99925.34
2018-04-25T06:46:13.813Z,99928.16
2018-04-25T06:48:41.390Z,99925.37
2018-04-25T06:51:08.967Z,99923.91
2018-04-25T06:53:36.579Z,99919.89
2018-04-25T06:56:04.204Z,99925.44
2018-04-25T06:58:31.777Z,99923.01
2018-04-25T07:00:59.383Z,99926.50
2018-04-25T07:03:26.952Z,99924.81
2018-04-25T07:05:54.541Z,99923.78
2018-04-25T07:08:22.151Z,99921.26
2018-04-25T07:10:49.747Z,99925.36
2018-04-25T07:13:17.341Z,99927.38
2018-04-25T07:15:44.956Z,99925.80
2018-04-25T07:18:12.538Z,99922.11
2018-04-25T07:20:40.119Z,99921.30
2018-04-25T07:23:07.743Z,99923.85
2018-04-25T07:25:35.323Z,99918.60
2018-04-25T07:28:02.905Z,99923.50
2018-04-25T07:30:30.546Z,99923.45
2018-04-25T07:32:58.139Z,99924.91
2018-04-25T07:35:25.797Z,99919.63
2018-04-25T07:37:53.403Z,99920.73
2018-04-25T07:40:20.994Z,99922.11
2018-04-25T07:42:48.579Z,99920.75
2018-04-25T07:45:16.207Z,99923.05
2018-04-25T07:47:43.783Z,99921.22
2018-04-25T07:50:11.366Z,99921.72
2018-04-25T07:52:38.975Z,99925.37
2018-04-25T07:55:06.557Z,99926.77
2018-04-25T07:57:34.132Z,99929.44
2018-04-25T08:00:01.754Z,99922.06
2018-04-25T08:02:29.335Z,99925.83
2018-04-25T08:04:56.929Z,99922.34
2018-04-25T08:07:24.669Z,99923.09
2018-04-25T08:09:52.227Z,99917.13
2018-04-25T08:12:31.525Z,99916.70
2018-04-25T08:15:10.823Z,99912.73
2018-04-25T08:17:50.107Z,99915.73
2018-04-25T08:20:29.359Z,99912.33
2018-04-25T08:22:56.978Z,99907.75
2018-04-25T08:25:24.573Z,99905.95
2018-04-25T08:27:52.149Z,99900.38
2018-04-25T08:30:19.971Z,99900.21
2018-04-25T08:32:47.560Z,99897.36
2018-04-25T08:35:15.147Z,99895.27
2018-04-25T08:37:42.787Z,99891.45
2018-04-25T08:40:10.408Z,99895.03
2018-04-25T08:42:37.988Z,99883.09
2018-04-25T08:45:05.660Z,99883.36
2018-04-25T08:47:33.207Z,99883.95
2018-04-25T08:50:00.781Z,99883.95
2018-04-25T08:52:28.407Z,99889.09
2018-04-25T08:54:56.015Z,99885.61
2018-04-25T08:57:23.592Z,99891.41
2018-04-25T08:59:51.222Z,99886.00
2018-04-25T09:02:18.851Z,99885.50
2018-04-25T09:04:46.433Z,99883.35
2018-04-25T09:07:14.055Z,99886.86
2018-04-25T09:09:41.634Z,99882.98
2018-04-25T09:12:09.219Z,99875.69
2018-04-25T09:14:36.850Z,99871.84
2018-04-25T09:17:04.432Z,99868.09
2018-04-25T09:19:32.005Z,99865.25
2018-04-25T09:21:59.618Z,99860.73
2018-04-25T09:24:27.245Z,99854.81
2018-04-25T09:26:54.825Z,99853.01
2018-04-25T09:29:22.449Z,99844.59
2018-04-25T09:31:50.026Z,99851.89
2018-04-25T09:34:17.610Z,99847.09
2018-04-25T09:36:45.228Z,99840.25
2018-04-25T09:39:12.805Z,99842.38
2018-04-25T09:41:40.393Z,99842.80
2018-04-25T09:44:08.007Z,99843.84
2018-04-25T09:46:35.588Z,99849.05
2018-04-25T09:49:03.172Z,99837.14
2018-04-25T09:51:30.823Z,99836.09
2018-04-25T09:53:58.408Z,99837.52
2018-04-25T09:56:25.990Z,99835.53
2018-04-25T09:58:53.602Z,99831.49
2018-04-25T10:01:26.707Z,99834.61
2018-04-25T10:03:54.365Z,99821.02
2018-04-25T10:06:21.973Z,99822.40
2018-04-25T10:08:49.543Z,99822.50
2018-04-25T10:11:17.165Z,99819.69
2018-04-25T10:13:44.752Z,99817.15
2018-04-25T10:16:12.330Z,99811.61
2018-04-25T10:18:40.008Z,99810.91
2018-04-25T10:21:07.593Z,99803.66
2018-04-25T10:23:35.201Z,99810.14
2018-04-25T10:26:02.824Z,99792.66
2018-04-25T10:28:30.468Z,99798.57
2018-04-25T10:30:58.047Z,99799.47
2018-04-25T10:33:25.670Z,99794.84
2018-04-25T10:35:53.243Z,99792.46
2018-04-25T10:38:20.828Z,99782.36
2018-04-25T10:40:48.437Z,99787.34
2018-04-25T10:43:16.024Z,99778.67
2018-04-25T10:45:43.597Z,99775.89
2018-04-25T10:48:11.206Z,99777.05
2018-04-25T10:50:38.784Z,99779.28
2018-04-25T10:53:06.359Z,99767.49
2018-04-25T10:55:33.987Z,99780.67
2018-04-25T10:58:01.558Z,99775.11
2018-04-25T11:00:29.204Z,99772.58
2018-04-25T11:02:56.843Z,99775.27
2018-04-25T11:05:24.443Z,99776.27
2018-04-25T11:07:52.059Z,99768.80
2018-04-25T11:10:19.634Z,99769.75
2018-04-25T11:12:47.236Z,99763.66
2018-04-25T11:15:14.805Z,99758.31
2018-04-25T11:17:42.368Z,99747.51
2018-04-25T11:20:09.977Z,99754.91
2018-04-25T11:22:37.606Z,99749.69
2018-04-25T11:25:05.190Z,99748.95
2018-04-25T11:27:32.900Z,99745.19
2018-04-25T11:30:00.476Z,99733.28
2018-04-25T11:32:28.219Z,99735.30
2018-04-25T11:34:55.841Z,99730.19
2018-04-25T11:37:23.453Z,99725.25
2018-04-25T11:39:51.045Z,99719.28
2018-04-25T11:42:18.662Z,99717.34
2018-04-25T11:44:46.239Z,99715.47
2018-04-25T11:47:13.892Z,99710.19
2018-04-25T11:49:41.460Z,99711.07
2018-04-25T11:52:09.030Z,99702.07
2018-04-25T11:54:36.604Z,99705.93
2018-04-25T11:57:04.235Z,99691.53
2018-04-25T11:59:31.823Z,99690.48
2018-04-25T12:01:59.410Z,99685.14
2018-04-25T12:04:27.023Z,99678.52
2018-04-25T12:06:54.666Z,99679.88
2018-04-25T12:09:22.326Z,99667.96
2018-04-25T12:11:49.942Z,99668.13
2018-04-25T12:14:17.661Z,99658.35
2018-04-25T12:16:45.310Z,99662.59
2018-04-25T12:19:12.952Z,99664.77
2018-04-25T12:21:40.623Z,99661.75
2018-04-25T12:24:08.289Z,99659.69
2018-04-25T12:26:35.963Z,99665.48
2018-04-25T12:29:03.624Z,99669.68
2018-04-25T12:31:31.276Z,99672.75
2018-04-25T12:33:58.945Z,99671.34
2018-04-25T12:36:26.604Z,99672.11
2018-04-25T12:38:55.253Z,99665.11
2018-04-25T12:41:22.930Z,99657.70
2018-04-25T12:43:50.499Z,99656.34
2018-04-25T12:46:18.081Z,99654.70
2018-04-25T12:48:45.688Z,99649.53
2018-04-25T12:51:13.258Z,99646.00
2018-04-25T12:53:40.832Z,99649.74
2018-04-25T12:56:08.422Z,99647.38
2018-04-25T12:58:35.999Z,99645.98
2018-04-25T13:01:03.624Z,99636.57
2018-04-25T13:03:31.236Z,99638.17
2018-04-25T13:05:58.799Z,99638.42
2018-04-25T13:08:26.374Z,99630.55
2018-04-25T13:10:54.076Z,99631.31
2018-04-25T13:13:21.657Z,99622.63
2018-04-25T13:15:49.217Z,99624.94
2018-04-25T13:18:19.784Z,99621.41
2018-04-25T13:20:47.390Z,99616.77
2018-04-25T13:23:15.059Z,99622.53
2018-04-25T13:25:42.659Z,99625.65
2018-04-25T13:28:10.360Z,99624.65
2018-04-25T13:30:37.920Z,99628.37
2018-04-25T13:33:05.524Z,99625.68
2018-04-25T13:35:33.154Z,99622.08
2018-04-25T13:38:00.720Z,99613.91
2018-04-25T13:40:28.320Z,99614.69
2018-04-25T13:42:55.944Z,99614.87
2018-04-25T13:47:56.574Z,99609.66
2018-04-25T13:50:24.153Z,99609.85
2018-04-25T13:52:51.709Z,99601.47
2018-04-25T13:55:19.318Z,99602.17
2018-04-25T13:57:47.042Z,99600.91
2018-04-25T14:00:14.679Z,99604.04
2018-04-25T14:02:42.337Z,99606.13
2018-04-25T14:05:09.950Z,99601.98
2018-04-25T14:07:37.549Z,99599.29
2018-04-25T14:10:05.332Z,99605.66
2018-04-25T14:12:32.897Z,99597.27
2018-04-25T14:15:00.452Z,99597.85
2018-04-25T14:17:28.059Z,99599.70
2018-04-25T14:19:55.613Z,99590.29
2018-04-25T14:22:23.169Z,99588.05
2018-04-25T14:24:50.758Z,99583.13
2018-04-25T14:27:18.350Z,99584.41
2018-04-25T14:29:45.930Z,99581.75
2018-04-25T14:32:13.507Z,99576.23
2018-04-25T14:34:41.090Z,99573.66
2018-04-25T14:37:08.659Z,99573.57
2018-04-25T14:39:36.258Z,99571.86
2018-04-25T14:42:04.059Z,99567.40
2018-04-25T14:44:31.625Z,99564.41
2018-04-25T14:46:59.277Z,99567.82
2018-04-25T14:49:27.013Z,99569.83
2018-04-25T14:51:54.999Z,99572.00
2018-04-25T14:54:22.639Z,99563.89
2018-04-25T14:56:50.591Z,99564.64
2018-04-25T14:59:18.180Z,99562.95
2018-04-25T15:01:46.147Z,99563.70
2018-04-25T15:04:14.042Z,99564.77
2018-04-25T15:06:41.618Z,99567.76
2018-04-25T15:09:09.347Z,99562.41
2018-04-25T15:11:37.009Z,99558.98
2018-04-25T15:14:04.583Z,99558.37
2018-04-25T15:16:32.339Z,99552.67
2018-04-25T15:18:59.923Z,99559.67
2018-04-25T15:21:27.495Z,99552.20
2018-04-25T15:23:55.142Z,99556.55
2018-04-25T15:26:23.498Z,99553.19
2018-04-25T15:28:51.262Z,99558.37
2018-04-25T15:31:18.877Z,99551.16
2018-04-25T15:33:46.454Z,99549.67
2018-04-25T15:36:14.142Z,99549.45
2018-04-25T15:38:41.756Z,99546.41
2018-04-25T15:41:09.332Z,99550.00
2018-04-25T15:43:37.218Z,99540.64
2018-04-25T15:46:04.823Z,99547.34
2018-04-25T15:48:32.460Z,99541.33
2018-04-25T15:51:00.115Z,99542.05
2018-04-25T15:53:28.017Z,99536.02
2018-04-25T15:55:55.581Z,99531.09
2018-04-25T15:58:23.164Z,99528.38
2018-04-25T16:00:50.781Z,99531.67
2018-04-25T16:03:18.364Z,99521.15
2018-04-25T16:05:45.943Z,99526.67
2018-04-25T16:08:13.637Z,99525.03
2018-04-25T16:10:41.231Z,99524.53
2018-04-25T16:13:08.886Z,99524.17
2018-04-25T16:15:36.753Z,99519.81
2018-04-25T16:18:04.397Z,99523.98
2018-04-25T16:20:31.983Z,99522.14
2018-04-25T16:22:59.698Z,99518.25
2018-04-25T16:25:27.279Z,99525.47
2018-04-25T16:27:54.931Z,99529.37
2018-04-25T16:30:22.538Z,99530.17
2018-04-25T16:32:50.108Z,99526.39
2018-04-25T16:35:17.699Z,99526.36
2018-04-25T16:37:45.336Z,99527.13
2018-04-25T16:40:12.969Z,99527.36
2018-04-25T16:42:40.803Z,99534.77
2018-04-25T16:45:08.420Z,99535.06
2018-04-25T16:47:36.010Z,99539.75
2018-04-25T16:50:03.597Z,99542.02
2018-04-25T16:52:31.204Z,99539.43
2018-04-25T16:54:58.972Z,99545.38
2018-04-25T16:57:26.572Z,99548.79
2018-04-25T16:59:54.245Z,99553.08
2018-04-25T17:02:21.909Z,99551.48
2018-04-25T17:04:49.803Z,99555.62
2018-04-25T17:07:17.419Z,99559.18
2018-04-25T17:09:45.145Z,99563.25
2018-04-25T17:12:12.724Z,99561.80
2018-04-25T17:14:40.340Z,99568.01
2018-04-25T17:17:07.970Z,99565.78
2018-04-25T17:19:35.666Z,99573.41
2018-04-25T17:22:03.441Z,99573.66
2018-04-25T17:24:31.010Z,99575.80
2018-04-25T17:26:58.604Z,99578.45
2018-04-25T17:29:26.219Z,99575.13
2018-04-25T17:31:53.791Z,99569.20
2018-04-25T17:34:21.521Z,99572.64
2018-04-25T17:36:49.258Z,99576.11
2018-04-25T17:39:16.898Z,99577.73
2018-04-25T17:41:44.644Z,99580.91
2018-04-25T17:44:12.288Z,99579.52
2018-04-25T17:46:39.928Z,99587.13
2018-04-25T17:49:07.573Z,99590.63
2018-04-25T17:51:35.188Z,99588.16
2018-04-25T17:54:02.763Z,99592.46
2018-04-25T17:56:30.333Z,99591.40
2018-04-25T17:58:57.937Z,99591.06
2018-04-25T18:01:25.514Z,99597.41
2018-04-25T18:03:53.161Z,99603.28
2018-04-25T18:06:20.763Z,99601.72
2018-04-25T18:08:48.499Z,99601.39
2018-04-25T18:11:16.168Z,99607.19
2018-04-25T18:13:43.769Z,99609.97
2018-04-25T18:16:11.349Z,99616.77
2018-04-25T18:18:39.149Z,99611.77
2018-04-25T18:21:06.758Z,99612.75
2018-04-25T18:23:34.453Z,99619.95
2018-04-25T18:26:02.035Z,99621.06
2018-04-25T18:28:29.631Z,99623.52
2018-04-25T18:30:57.256Z,99624.91
2018-04-25T18:33:24.900Z,99628.33
2018-04-25T18:35:52.542Z,99625.26
2018-04-25T18:38:20.121Z,99641.26
2018-04-25T18:40:47.903Z,99639.10
2018-04-25T18:43:15.626Z,99639.66
2018-04-25T18:45:43.198Z,99649.84
2018-04-25T18:48:10.773Z,99646.59
2018-04-25T18:50:38.539Z,99648.91
2018-04-25T18:53:06.119Z,99650.91
2018-04-25T18:55:33.703Z,99652.25
2018-04-25T18:58:01.340Z,99648.23
2018-04-25T19:00:28.996Z,99645.47
2018-04-25T19:02:56.569Z,99646.02
2018-04-25T19:05:24.335Z,99646.14
2018-04-25T19:07:52.165Z,99650.20
2018-04-25T19:10:19.749Z,99653.19
2018-04-25T19:12:47.426Z,99658.47
2018-04-25T19:15:15.005Z,99653.61
2018-04-25T19:17:42.616Z,99659.84
2018-04-25T19:20:10.299Z,99655.22
2018-04-25T19:22:37.878Z,99655.61
2018-04-25T19:25:05.481Z,99655.45
2018-04-25T19:27:33.083Z,99655.46
2018-04-25T19:30:00.738Z,99658.58
2018-04-25T19:32:28.373Z,99655.83
2018-04-25T19:34:56.002Z,99657.59
2018-04-25T19:37:23.621Z,99655.58
2018-04-25T19:39:51.387Z,99661.28
2018-04-25T19:42:19.009Z,99657.85
2018-04-25T19:44:46.678Z,99657.16
2018-04-25T19:47:14.208Z,99655.39
2018-04-25T19:49:41.820Z,99651.37
2018-04-25T19:52:09.390Z,99660.13
2018-04-25T19:54:37.042Z,99659.86
2018-04-25T19:57:04.785Z,99655.87
2018-04-25T19:59:32.372Z,99661.22
2018-04-25T20:01:59.961Z,99653.91
2018-04-25T20:04:27.688Z,99652.72
2018-04-25T20:06:55.430Z,99651.33
2018-04-25T20:09:23.033Z,99655.12
2018-04-25T20:11:50.946Z,99657.52
2018-04-25T20:14:18.646Z,99658.80
2018-04-25T20:16:46.301Z,99663.89
2018-04-25T20:19:13.981Z,99668.05
2018-04-25T20:21:41.564Z,99650.70
2018-04-25T20:24:09.170Z,99665.28
2018-04-25T20:26:36.768Z,99661.44
2018-04-25T20:29:04.430Z,99661.84
2018-04-25T20:31:32.004Z,99662.30
2018-04-25T20:33:59.752Z,99666.53
2018-04-25T20:36:27.322Z,99667.26
2018-04-25T20:38:54.951Z,99672.30
2018-04-25T20:41:22.576Z,99668.27
2018-04-25T20:43:50.148Z,99668.86
2018-04-25T20:46:17.948Z,99667.98
2018-04-25T20:48:45.716Z,99669.08
2018-04-25T20:51:13.293Z,99673.09
2018-04-25T20:53:41.022Z,99671.24
2018-04-25T20:56:08.692Z,99672.24
2018-04-25T20:58:36.360Z,99666.48
2018-04-25T21:01:04.019Z,99660.36
2018-04-25T21:03:31.698Z,99660.13
2018-04-25T21:05:59.278Z,99666.57
2018-04-25T21:08:26.862Z,99668.00
2018-04-25T21:10:54.890Z,99665.90
2018-04-25T21:13:22.519Z,99664.80
2018-04-25T21:15:50.101Z,99661.02
2018-04-25T21:18:17.705Z,99663.27
2018-04-25T21:20:45.310Z,99662.03
2018-04-25T21:23:12.996Z,99656.48
2018-04-25T21:25:40.654Z,99656.30
2018-04-25T21:28:08.299Z,99655.48
2018-04-25T21:30:35.862Z,99653.27
2018-04-25T21:33:03.472Z,99652.92
2018-04-25T21:35:31.066Z,99649.06
2018-04-25T21:37:58.754Z,99648.53
2018-04-25T21:40:26.380Z,99652.70
2018-04-25T21:42:54.078Z,99650.75
2018-04-25T21:45:21.647Z,99655.83
2018-04-25T21:47:49.267Z,99654.64
2018-04-25T21:50:16.836Z,99660.02
2018-04-25T21:52:44.510Z,99655.77
2018-04-25T21:55:12.219Z,99660.49
2018-04-25T21:57:39.799Z,99669.41
2018-04-25T22:00:07.499Z,99672.88
2018-04-25T22:02:35.094Z,99667.53
2018-04-25T22:05:02.693Z,99668.45
2018-04-25T22:07:30.504Z,99674.52
2018-04-25T22:09:58.159Z,99670.72
2018-04-25T22:12:25.744Z,99673.95
2018-04-25T22:14:53.481Z,99668.48
2018-04-25T22:17:21.204Z,99663.13
2018-04-25T22:19:48.803Z,99672.65
2018-04-25T22:22:16.394Z,99666.92
2018-04-25T22:24:44.038Z,99668.42
2018-04-25T22:27:11.801Z,99667.16
2018-04-25T22:29:39.384Z,99665.85
2018-04-25T22:32:06.983Z,99663.33
2018-04-25T22:34:34.570Z,99664.50
2018-04-25T22:37:02.148Z,99659.45
2018-04-25T22:39:29.771Z,99661.27
2018-04-25T22:41:57.346Z,99653.57
2018-04-25T22:44:25.020Z,99662.61
2018-04-25T22:46:52.665Z,99658.98
2018-04-25T22:49:20.245Z,99657.03
2018-04-25T22:51:47.813Z,99651.41
2018-04-25T22:54:15.427Z,99649.70
2018-04-25T22:56:43.008Z,99650.31
2018-04-25T22:59:10.593Z,99651.90
2018-04-25T23:01:38.255Z,99649.38
2018-04-25T23:04:05.899Z,99644.59
2018-04-25T23:06:33.499Z,99640.63
2018-04-25T23:09:01.098Z,99632.47
2018-04-25T23:11:28.688Z,99634.41
2018-04-25T23:13:56.347Z,99634.86
2018-04-25T23:16:23.986Z,99618.48
2018-04-25T23:18:51.571Z,99626.48
2018-04-25T23:21:19.349Z,99632.06
2018-04-25T23:23:46.963Z,99635.33
2018-04-25T23:26:14.533Z,99631.12
2018-04-25T23:28:42.115Z,99631.97
2018-04-25T23:31:09.791Z,99633.31
2018-04-25T23:33:37.396Z,99620.87
2018-04-25T23:36:04.975Z,99618.36
2018-04-25T23:38:32.614Z,99623.31
2018-04-25T23:41:00.200Z,99622.31
2018-04-25T23:43:28.074Z,99622.43
2018-04-25T23:45:55.753Z,99622.18
2018-04-25T23:48:23.346Z,99618.63
2018-04-25T23:50:50.927Z,99623.14
2018-04-25T23:53:18.747Z,99620.19
2018-04-25T23:55:46.324Z,99620.94
2018-04-25T23:58:14.056Z,99623.06
